Time;durP1;ratioP1;P1;durP2;ratioP2;P2;SDS_P1;SDS_P2;PMS_P1;PMS_P2;Temp;Humidity;BMP_temperature;BMP_pressure;BME280_temperature;BME280_humidity;BME280_pressure;Samples;Min_cycle;Max_cycle;Signal;HPM_P1;HPM_P2
2024/01/23 00:02:21;;;;;;;11.50;2.13;;;8.20;1.00;;;;;;5043041;28;20174;-77
2024/01/23 00:04:46;;;;;;;6.97;1.63;;;8.20;1.00;;;;;;5040723;28;20209;-79
2024/01/23 00:07:12;;;;;;;6.60;1.70;;;8.20;1.00;;;;;;5033729;28;20548;-76
2024/01/23 00:09:37;;;;;;;4.60;1.70;;;8.30;1.00;;;;;;5040893;28;20208;-76
2024/01/23 00:12:05;;;;;;;5.67;1.90;;;8.20;1.00;;;;;;5031065;28;20267;-77
2024/01/23 00:14:32;;;;;;;5.57;2.07;;;8.30;1.00;;;;;;5040325;28;20180;-75
2024/01/23 00:16:57;;;;;;;12.83;2.10;;;8.30;1.00;;;;;;5047007;28;20417;-77
2024/01/23 00:19:23;;;;;;;4.70;2.07;;;8.30;1.00;;;;;;5032411;28;20421;-77
2024/01/23 00:21:48;;;;;;;4.83;1.40;;;8.30;1.00;;;;;;5032508;28;20425;-76
2024/01/23 00:24:14;;;;;;;5.30;1.87;;;8.20;1.00;;;;;;5050672;28;20184;-76
2024/01/23 00:26:40;;;;;;;3.50;2.23;;;8.20;1.00;;;;;;5047442;28;20272;-79
2024/01/23 00:29:07;;;;;;;6.30;1.60;;;8.20;1.00;;;;;;5039579;28;20184;-77
2024/01/23 00:31:33;;;;;;;11.17;1.60;;;8.30;1.00;;;;;;5038101;28;20188;-77
2024/01/23 00:33:59;;;;;;;7.43;1.77;;;8.30;1.00;;;;;;5034175;28;20412;-78
2024/01/23 00:36:24;;;;;;;5.43;1.57;;;8.30;1.00;;;;;;5048937;28;20219;-77
2024/01/23 00:38:50;;;;;;;5.37;1.50;;;8.30;1.00;;;;;;5033596;28;20707;-77
2024/01/23 00:41:15;;;;;;;9.03;2.17;;;8.40;1.00;;;;;;5031294;28;20251;-78
2024/01/23 00:43:41;;;;;;;7.73;2.07;;;8.40;1.00;;;;;;5048143;28;20280;-77
2024/01/23 00:46:06;;;;;;;5.37;1.30;;;8.40;1.00;;;;;;5042480;28;20246;-76
2024/01/23 00:48:32;;;;;;;9.40;1.57;;;8.50;1.00;;;;;;5047119;28;20352;-77
2024/01/23 00:50:57;;;;;;;9.10;1.80;;;8.50;1.00;;;;;;5031623;28;20201;-77
2024/01/23 00:53:23;;;;;;;11.13;1.90;;;8.40;1.00;;;;;;5038085;28;20180;-77
2024/01/23 00:55:48;;;;;;;7.63;1.60;;;8.50;1.00;;;;;;5031210;28;20178;-77
2024/01/23 00:58:15;;;;;;;4.50;1.70;;;8.50;1.00;;;;;;5037742;28;20170;-76
2024/01/23 01:00:44;;;;;;;9.17;1.80;;;8.50;1.00;;;;;;5034489;28;20680;-79
2024/01/23 01:03:10;;;;;;;6.13;1.67;;;8.50;1.00;;;;;;5041148;28;20498;-76
2024/01/23 01:05:35;;;;;;;4.20;1.40;;;8.50;1.00;;;;;;5041537;28;20526;-76
2024/01/23 01:08:01;;;;;;;4.53;1.97;;;8.50;1.00;;;;;;5037327;28;20828;-76
2024/01/23 01:10:26;;;;;;;7.13;1.67;;;8.50;1.00;;;;;;5048977;28;20193;-77
2024/01/23 01:12:53;;;;;;;4.43;1.87;;;8.50;1.00;;;;;;5047024;28;20181;-79
2024/01/23 01:15:19;;;;;;;3.97;1.43;;;8.50;1.00;;;;;;5036751;28;20173;-77
2024/01/23 01:17:44;;;;;;;8.73;1.80;;;8.50;1.00;;;;;;5035095;28;20787;-77
2024/01/23 01:20:10;;;;;;;3.23;1.23;;;8.50;1.00;;;;;;5033518;28;20247;-79
2024/01/23 01:22:35;;;;;;;8.60;2.30;;;8.50;1.00;;;;;;5042562;28;20189;-77
2024/01/23 01:25:01;;;;;;;9.80;2.00;;;8.40;1.00;;;;;;5043001;28;20479;-77
2024/01/23 01:27:27;;;;;;;4.43;1.93;;;8.50;1.00;;;;;;5045252;28;20173;-77
2024/01/23 01:29:53;;;;;;;6.00;2.17;;;8.50;1.00;;;;;;5040849;28;20729;-77
2024/01/23 01:32:18;;;;;;;6.50;1.83;;;8.50;1.00;;;;;;5033960;28;20174;-76
2024/01/23 01:34:44;;;;;;;4.27;2.07;;;8.50;1.00;;;;;;5037575;28;20227;-80
2024/01/23 01:37:09;;;;;;;4.50;1.47;;;8.50;1.00;;;;;;5035344;28;20182;-77
2024/01/23 01:39:35;;;;;;;8.40;1.70;;;8.50;1.00;;;;;;5034675;28;20233;-81
2024/01/23 01:42:00;;;;;;;6.63;2.10;;;8.50;1.00;;;;;;5036564;28;20257;-80
2024/01/23 01:44:26;;;;;;;4.30;1.60;;;8.40;1.00;;;;;;5048493;28;20528;-77
2024/01/23 01:46:52;;;;;;;8.73;2.50;;;8.40;1.00;;;;;;5039949;28;20193;-77
2024/01/23 01:49:18;;;;;;;5.13;1.60;;;8.40;1.00;;;;;;5043045;28;20186;-80
2024/01/23 01:51:46;;;;;;;6.10;3.10;;;8.40;1.00;;;;;;5044050;28;20475;-76
2024/01/23 01:54:12;;;;;;;8.20;2.23;;;8.40;1.00;;;;;;5039936;28;20876;-79
2024/01/23 01:56:38;;;;;;;5.73;2.00;;;8.40;1.00;;;;;;5037057;28;20520;-77
2024/01/23 01:59:04;;;;;;;6.83;1.90;;;8.40;1.00;;;;;;5037837;28;20544;-81
2024/01/23 02:01:30;;;;;;;4.13;1.60;;;8.40;1.00;;;;;;5037900;28;20443;-78
2024/01/23 02:03:55;;;;;;;7.07;1.87;;;8.40;1.00;;;;;;5043810;28;20208;-77
2024/01/23 02:06:21;;;;;;;5.00;1.73;;;8.40;1.00;;;;;;5030114;28;20208;-77
2024/01/23 02:08:49;;;;;;;5.07;1.50;;;8.40;1.00;;;;;;5033236;28;20655;-77
2024/01/23 02:11:14;;;;;;;4.53;1.73;;;8.40;1.00;;;;;;5044280;28;20439;-79
2024/01/23 02:13:41;;;;;;;6.53;1.70;;;8.30;1.00;;;;;;5041109;28;20440;-76
2024/01/23 02:16:07;;;;;;;4.10;1.57;;;8.30;1.00;;;;;;5043616;28;20276;-82
2024/01/23 02:18:32;;;;;;;6.33;1.53;;;8.30;1.00;;;;;;5044604;28;20428;-80
2024/01/23 02:20:58;;;;;;;6.43;1.73;;;8.40;1.00;;;;;;5042974;28;20435;-77
2024/01/23 02:23:29;;;;;;;8.30;2.40;;;8.30;1.00;;;;;;5039577;28;20213;-77
2024/01/23 02:25:54;;;;;;;3.70;1.50;;;8.40;1.00;;;;;;5049472;28;20571;-77
2024/01/23 02:28:21;;;;;;;6.30;1.67;;;8.40;1.00;;;;;;5051221;28;20419;-78
2024/01/23 02:30:46;;;;;;;7.67;1.67;;;8.40;1.00;;;;;;5033654;28;20267;-77
2024/01/23 02:33:13;;;;;;;6.20;1.70;;;8.50;1.00;;;;;;5036418;28;20879;-77
2024/01/23 02:35:39;;;;;;;10.50;1.80;;;8.50;1.00;;;;;;5042747;28;20462;-77
2024/01/23 02:38:05;;;;;;;4.43;1.60;;;8.50;1.00;;;;;;5036012;28;20517;-77
2024/01/23 02:40:30;;;;;;;7.90;2.13;;;8.50;1.00;;;;;;5044637;28;20264;-76
2024/01/23 02:42:56;;;;;;;14.07;1.90;;;8.50;1.00;;;;;;5036679;28;20551;-77
2024/01/23 02:45:22;;;;;;;18.30;2.63;;;8.50;1.00;;;;;;5033607;28;20205;-81
2024/01/23 02:47:48;;;;;;;8.00;1.60;;;8.50;1.00;;;;;;5037321;28;20462;-81
2024/01/23 02:50:13;;;;;;;3.57;1.80;;;8.40;1.00;;;;;;5038170;28;20540;-77
2024/01/23 02:52:39;;;;;;;7.20;1.60;;;8.30;1.00;;;;;;5040439;28;20191;-76
2024/01/23 02:55:05;;;;;;;6.43;2.03;;;8.20;1.00;;;;;;5031374;28;20186;-77
2024/01/23 02:57:30;;;;;;;5.43;1.80;;;8.20;1.00;;;;;;5032279;28;20548;-80
2024/01/23 02:59:56;;;;;;;5.53;1.90;;;8.10;1.00;;;;;;5034386;28;20297;-77
2024/01/23 03:02:23;;;;;;;7.17;1.50;;;8.10;1.00;;;;;;5043888;28;20178;-77
2024/01/23 03:04:48;;;;;;;10.37;1.77;;;7.90;1.00;;;;;;5039311;28;20181;-77
2024/01/23 03:07:15;;;;;;;7.50;1.53;;;7.70;1.00;;;;;;5040033;28;20929;-77
2024/01/23 03:09:43;;;;;;;5.07;1.47;;;7.50;1.00;;;;;;5034747;28;20221;-77
2024/01/23 03:12:16;;;;;;;8.80;1.80;;;7.50;1.00;;;;;;5038684;28;20934;-82
2024/01/23 03:14:45;;;;;;;8.80;1.90;;;7.40;1.00;;;;;;5038902;28;20421;-80
2024/01/23 03:17:11;;;;;;;8.20;2.00;;;7.40;1.00;;;;;;5041743;28;20430;-77
2024/01/23 03:19:37;;;;;;;5.50;1.80;;;7.30;1.00;;;;;;5047078;28;20435;-77
2024/01/23 03:22:03;;;;;;;7.10;2.07;;;7.40;1.00;;;;;;5044326;28;20616;-76
2024/01/23 03:24:29;;;;;;;7.30;2.27;;;7.30;1.00;;;;;;5040217;28;20181;-77
2024/01/23 03:26:55;;;;;;;9.03;1.67;;;7.30;1.00;;;;;;5038024;28;20209;-77
2024/01/23 03:29:21;;;;;;;6.07;1.83;;;7.20;1.00;;;;;;5038600;28;20446;-78
2024/01/23 03:31:46;;;;;;;13.40;1.70;;;7.20;1.00;;;;;;5041872;28;20251;-77
2024/01/23 03:34:11;;;;;;;4.77;2.17;;;7.20;1.00;;;;;;5036562;28;20190;-77
2024/01/23 03:36:37;;;;;;;9.33;2.20;;;7.20;1.00;;;;;;5042460;28;20186;-78
2024/01/23 03:39:03;;;;;;;8.43;1.70;;;7.30;1.00;;;;;;5031366;28;20683;-77
2024/01/23 03:41:29;;;;;;;11.10;1.93;;;7.30;1.00;;;;;;5035489;28;20321;-77
2024/01/23 03:43:55;;;;;;;15.50;2.33;;;7.30;1.00;;;;;;5038428;28;20431;-77
2024/01/23 03:46:21;;;;;;;10.60;2.30;;;7.30;1.00;;;;;;5046158;28;20545;-79
2024/01/23 03:48:46;;;;;;;10.97;2.10;;;7.30;1.00;;;;;;5039563;28;20187;-79
2024/01/23 03:51:12;;;;;;;6.03;2.27;;;7.20;1.00;;;;;;5028949;28;20197;-78
2024/01/23 03:53:37;;;;;;;10.33;2.73;;;7.10;1.00;;;;;;5033201;28;20579;-77
2024/01/23 03:56:03;;;;;;;7.00;2.30;;;7.10;1.00;;;;;;5041612;28;20378;-81
2024/01/23 03:58:28;;;;;;;10.70;2.10;;;7.00;1.00;;;;;;5043418;28;20192;-77
2024/01/23 04:00:57;;;;;;;12.00;2.57;;;7.00;1.00;;;;;;5029528;28;20213;-77
2024/01/23 04:03:23;;;;;;;5.53;2.00;;;7.00;1.00;;;;;;5042284;28;20536;-78
2024/01/23 04:05:48;;;;;;;6.23;1.97;;;7.00;1.00;;;;;;5038409;28;20475;-77
2024/01/23 04:08:14;;;;;;;15.87;2.53;;;7.00;1.00;;;;;;5038658;28;20177;-77
2024/01/23 04:10:39;;;;;;;11.60;2.77;;;7.00;1.00;;;;;;5033144;28;20197;-77
2024/01/23 04:13:05;;;;;;;14.10;2.47;;;7.00;1.00;;;;;;5043537;28;20201;-77
2024/01/23 04:15:30;;;;;;;9.70;2.13;;;7.00;1.00;;;;;;5041482;28;20199;-78
2024/01/23 04:17:56;;;;;;;7.83;1.90;;;6.90;1.00;;;;;;5041217;28;20189;-77
2024/01/23 04:20:21;;;;;;;11.10;2.10;;;6.70;1.00;;;;;;5039173;28;20209;-78
2024/01/23 04:22:47;;;;;;;13.60;2.37;;;6.70;1.00;;;;;;5046498;28;20181;-77
2024/01/23 04:25:12;;;;;;;8.47;2.00;;;6.70;1.00;;;;;;5044759;28;20216;-77
2024/01/23 04:27:38;;;;;;;6.10;1.73;;;6.60;1.00;;;;;;5042018;28;20173;-77
2024/01/23 04:30:04;;;;;;;11.60;2.17;;;6.50;1.00;;;;;;5031062;28;20316;-79
2024/01/23 04:32:30;;;;;;;24.27;2.30;;;6.40;1.00;;;;;;5033070;28;20181;-78
2024/01/23 04:34:55;;;;;;;7.60;2.13;;;6.30;1.00;;;;;;5040815;28;20425;-76
2024/01/23 04:37:22;;;;;;;14.00;2.53;;;6.10;1.00;;;;;;5035097;28;20180;-80
2024/01/23 04:39:47;;;;;;;5.50;2.37;;;5.90;1.00;;;;;;5036484;28;20200;-77
2024/01/23 04:42:13;;;;;;;9.77;2.67;;;5.90;1.00;;;;;;5032170;28;20417;-79
2024/01/23 04:44:38;;;;;;;12.90;2.70;;;5.80;1.00;;;;;;5039283;28;20222;-77
2024/01/23 04:47:04;;;;;;;8.93;2.60;;;5.90;1.00;;;;;;5036853;28;20666;-79
2024/01/23 04:49:30;;;;;;;15.83;2.10;;;6.00;1.00;;;;;;5041493;28;20202;-77
2024/01/23 04:51:56;;;;;;;7.00;2.20;;;5.90;1.00;;;;;;5037042;28;20496;-77
2024/01/23 04:54:21;;;;;;;8.10;2.60;;;6.00;1.00;;;;;;5041610;28;20504;-79
2024/01/23 04:56:47;;;;;;;6.13;1.93;;;5.90;1.00;;;;;;5042319;28;20181;-77
2024/01/23 04:59:13;;;;;;;14.67;2.27;;;5.80;1.00;;;;;;5038632;28;20185;-77
2024/01/23 05:01:38;;;;;;;8.83;1.70;;;5.80;1.00;;;;;;5041187;28;20497;-77
2024/01/23 05:04:04;;;;;;;7.40;2.30;;;5.70;1.00;;;;;;5045942;28;20193;-77
2024/01/23 05:06:30;;;;;;;9.90;1.87;;;5.60;1.00;;;;;;5041325;28;20794;-75
2024/01/23 05:08:55;;;;;;;10.80;3.20;;;5.60;1.00;;;;;;5045232;28;20177;-77
2024/01/23 05:11:21;;;;;;;13.93;2.10;;;5.70;1.00;;;;;;5037116;28;20953;-79
2024/01/23 05:13:46;;;;;;;9.03;2.17;;;5.70;1.00;;;;;;5035231;28;20186;-79
2024/01/23 05:16:12;;;;;;;12.80;2.43;;;5.80;1.00;;;;;;5035879;28;20178;-79
2024/01/23 05:18:38;;;;;;;11.90;2.37;;;5.80;1.00;;;;;;5029063;28;20200;-79
2024/01/23 05:21:04;;;;;;;12.87;3.77;;;5.80;1.00;;;;;;5044773;28;20211;-77
2024/01/23 05:23:29;;;;;;;15.40;2.70;;;5.80;1.00;;;;;;5042434;28;20186;-77
2024/01/23 05:25:54;;;;;;;6.77;2.10;;;5.90;1.00;;;;;;5041170;28;20255;-77
2024/01/23 05:28:20;;;;;;;15.33;4.10;;;5.90;1.00;;;;;;5044774;28;20189;-77
2024/01/23 05:30:46;;;;;;;9.57;2.27;;;5.90;1.00;;;;;;5034987;28;20591;-77
2024/01/23 05:33:11;;;;;;;11.60;3.37;;;5.90;1.00;;;;;;5037217;28;20465;-78
2024/01/23 05:35:37;;;;;;;12.07;2.50;;;5.90;1.00;;;;;;5031025;28;20668;-79
2024/01/23 05:38:03;;;;;;;7.53;2.23;;;5.90;1.00;;;;;;5033530;28;20186;-77
2024/01/23 05:40:28;;;;;;;6.60;2.10;;;5.80;1.00;;;;;;5039338;28;20677;-77
2024/01/23 05:42:54;;;;;;;9.93;2.70;;;5.80;1.00;;;;;;5039869;28;20435;-79
2024/01/23 05:45:19;;;;;;;10.07;2.67;;;5.80;1.00;;;;;;5047652;28;20204;-77
2024/01/23 05:47:45;;;;;;;11.10;2.37;;;5.90;1.00;;;;;;5043917;28;20178;-76
2024/01/23 05:50:10;;;;;;;10.10;2.20;;;5.90;1.00;;;;;;5041791;28;20199;-78
2024/01/23 05:52:36;;;;;;;6.20;1.97;;;5.90;1.00;;;;;;5035174;28;20184;-76
2024/01/23 05:55:02;;;;;;;6.73;1.90;;;5.90;1.00;;;;;;5040184;28;20260;-81
2024/01/23 05:57:28;;;;;;;9.27;2.00;;;5.90;1.00;;;;;;5043973;28;20565;-77
2024/01/23 05:59:53;;;;;;;10.40;2.00;;;5.90;1.00;;;;;;5037142;28;20458;-79
2024/01/23 06:02:19;;;;;;;7.90;2.10;;;8.50;1.00;;;;;;5042603;28;20714;-78
2024/01/23 06:04:45;;;;;;;11.53;1.90;;;5.80;1.00;;;;;;5036571;28;20174;-77
2024/01/23 06:07:11;;;;;;;12.83;2.53;;;5.80;1.00;;;;;;5035141;28;20645;-79
2024/01/23 06:09:36;;;;;;;11.90;2.30;;;5.80;1.00;;;;;;5031790;28;20668;-77
2024/01/23 06:12:02;;;;;;;10.73;2.20;;;5.70;1.00;;;;;;5040326;28;20187;-78
2024/01/23 06:14:28;;;;;;;8.73;1.90;;;5.70;1.00;;;;;;5039951;28;20261;-78
2024/01/23 06:16:53;;;;;;;11.60;2.70;;;5.70;1.00;;;;;;5040587;28;20996;-78
2024/01/23 06:19:19;;;;;;;13.27;2.20;;;5.70;1.00;;;;;;5037272;28;20177;-77
2024/01/23 06:21:44;;;;;;;7.10;2.33;;;5.70;1.00;;;;;;5045886;28;20181;-77
2024/01/23 06:24:10;;;;;;;9.60;2.30;;;5.60;1.00;;;;;;5042506;28;20178;-78
2024/01/23 06:26:36;;;;;;;11.07;2.00;;;4.90;1.00;;;;;;5042371;28;20197;-76
2024/01/23 06:29:02;;;;;;;6.57;2.33;;;5.60;1.00;;;;;;5038100;28;20420;-77
2024/01/23 06:31:28;;;;;;;8.23;2.60;;;5.60;1.00;;;;;;5038141;28;20204;-81
2024/01/23 06:33:54;;;;;;;11.20;2.70;;;5.70;1.00;;;;;;5042603;28;20421;-77
2024/01/23 06:36:20;;;;;;;10.83;2.33;;;5.60;1.00;;;;;;5045699;28;20211;-76
2024/01/23 06:38:45;;;;;;;9.67;2.57;;;5.60;1.00;;;;;;5045282;28;20203;-76
2024/01/23 06:41:11;;;;;;;8.57;3.03;;;5.60;1.00;;;;;;5042730;28;21128;-77
2024/01/23 06:43:36;;;;;;;9.90;2.93;;;5.60;1.00;;;;;;5042867;28;20269;-77
2024/01/23 06:46:02;;;;;;;8.43;1.93;;;5.60;1.00;;;;;;5045824;28;20197;-76
2024/01/23 06:48:29;;;;;;;5.90;2.10;;;5.70;1.00;;;;;;5038487;28;20181;-76
2024/01/23 06:50:55;;;;;;;16.47;1.83;;;5.70;1.00;;;;;;5036045;28;20316;-77
2024/01/23 06:53:20;;;;;;;10.30;2.43;;;5.70;1.00;;;;;;5039706;28;20503;-76
2024/01/23 06:55:46;;;;;;;14.83;2.07;;;5.70;1.00;;;;;;5037365;28;20189;-77
2024/01/23 06:58:11;;;;;;;8.93;2.03;;;5.70;1.00;;;;;;5045721;28;20205;-79
2024/01/23 07:00:37;;;;;;;11.60;1.90;;;5.70;1.00;;;;;;5047555;28;20235;-77
2024/01/23 07:03:03;;;;;;;6.10;1.63;;;5.70;1.00;;;;;;5046911;28;20797;-75
2024/01/23 07:05:28;;;;;;;8.53;2.10;;;5.70;1.00;;;;;;5044153;28;20967;-75
2024/01/23 07:07:54;;;;;;;11.37;1.83;;;5.80;1.00;;;;;;5046961;28;20629;-76
2024/01/23 07:10:19;;;;;;;7.17;2.37;;;5.90;1.00;;;;;;5047604;28;20197;-79
2024/01/23 07:12:45;;;;;;;9.93;2.47;;;5.90;1.00;;;;;;5044764;28;20177;-79
2024/01/23 07:15:11;;;;;;;7.13;1.93;;;5.90;1.00;;;;;;5052820;28;20193;-76
2024/01/23 07:17:36;;;;;;;13.20;2.77;;;5.90;1.00;;;;;;5047099;28;20177;-77
2024/01/23 07:20:02;;;;;;;5.00;1.97;;;6.00;1.00;;;;;;5046280;28;20228;-76
2024/01/23 07:22:28;;;;;;;5.47;1.93;;;6.00;1.00;;;;;;5050026;28;20200;-79
2024/01/23 07:24:54;;;;;;;4.30;1.73;;;6.00;1.00;;;;;;5043223;28;20431;-75
2024/01/23 07:27:20;;;;;;;5.73;1.60;;;6.00;1.00;;;;;;5008656;28;20189;-77
2024/01/23 07:29:45;;;;;;;4.37;1.97;;;6.20;1.00;;;;;;5032759;28;20204;-78
2024/01/23 07:32:11;;;;;;;5.50;2.10;;;6.20;1.00;;;;;;5030793;28;20784;-74
2024/01/23 07:34:37;;;;;;;11.83;3.30;;;6.30;1.00;;;;;;5037448;28;20178;-78
2024/01/23 07:37:03;;;;;;;5.10;2.13;;;6.40;1.00;;;;;;5038665;28;20221;-75
2024/01/23 07:39:29;;;;;;;5.33;2.10;;;6.30;1.00;;;;;;5032243;28;20658;-76
2024/01/23 07:41:55;;;;;;;10.97;2.17;;;6.20;1.00;;;;;;5035888;28;20261;-77
2024/01/23 07:44:20;;;;;;;7.23;2.10;;;6.30;1.00;;;;;;5040328;28;20523;-76
2024/01/23 07:46:47;;;;;;;4.70;1.87;;;6.30;1.00;;;;;;5040936;28;20213;-77
2024/01/23 07:49:13;;;;;;;6.47;1.90;;;6.40;1.00;;;;;;5041062;28;20177;-75
2024/01/23 07:51:49;;;;;;;6.07;2.03;;;7.00;1.00;;;;;;5031165;28;20896;-76
2024/01/23 07:54:15;;;;;;;8.40;3.00;;;6.50;1.00;;;;;;5056939;28;20189;-75
2024/01/23 07:56:40;;;;;;;8.70;2.23;;;6.50;1.00;;;;;;5039358;28;20425;-77
2024/01/23 07:59:06;;;;;;;13.97;2.77;;;6.50;1.00;;;;;;5043988;28;20664;-78
2024/01/23 08:01:31;;;;;;;10.50;2.63;;;6.50;1.00;;;;;;5030878;28;20209;-76
2024/01/23 08:03:57;;;;;;;6.27;2.17;;;6.60;1.00;;;;;;5040844;28;20212;-77
2024/01/23 08:06:23;;;;;;;11.53;2.17;;;6.60;1.00;;;;;;5041047;28;20197;-76
2024/01/23 08:08:50;;;;;;;10.27;2.00;;;6.70;1.00;;;;;;5040643;28;20182;-77
2024/01/23 08:11:16;;;;;;;10.03;2.23;;;6.80;1.00;;;;;;5040967;28;20494;-77
2024/01/23 08:13:41;;;;;;;11.30;2.40;;;6.80;1.00;;;;;;5035904;28;20786;-75
2024/01/23 08:16:10;;;;;;;4.47;2.20;;;6.80;1.00;;;;;;5047106;28;20670;-77
2024/01/23 08:18:39;;;;;;;8.37;2.30;;;6.90;1.00;;;;;;5038962;28;20212;-76
2024/01/23 08:21:05;;;;;;;8.93;2.27;;;6.90;1.00;;;;;;5044658;28;20945;-76
2024/01/23 08:23:31;;;;;;;10.80;3.10;;;6.90;1.00;;;;;;5030799;28;20447;-77
2024/01/23 08:25:56;;;;;;;8.30;1.90;;;6.90;1.00;;;;;;5040112;28;20467;-76
2024/01/23 08:28:23;;;;;;;10.07;2.33;;;6.90;1.00;;;;;;5039487;28;20189;-75
2024/01/23 08:30:49;;;;;;;4.73;2.50;;;7.00;1.00;;;;;;5040441;28;20560;-76
2024/01/23 08:33:18;;;;;;;6.70;2.50;;;6.90;1.00;;;;;;5037269;28;20425;-73
2024/01/23 08:35:44;;;;;;;9.53;2.40;;;7.00;1.00;;;;;;5036115;28;20201;-78
2024/01/23 08:38:10;;;;;;;7.47;2.33;;;7.10;1.00;;;;;;5039153;28;20843;-78
2024/01/23 08:40:37;;;;;;;12.17;3.03;;;7.30;1.00;;;;;;5040113;28;20441;-77
2024/01/23 08:43:03;;;;;;;8.90;2.33;;;7.40;1.00;;;;;;5041105;28;20423;-76
2024/01/23 08:45:29;;;;;;;6.70;2.50;;;7.40;1.00;;;;;;5043681;28;20996;-76
2024/01/23 08:47:55;;;;;;;11.27;2.63;;;7.40;1.00;;;;;;5038127;28;20498;-76
2024/01/23 08:50:20;;;;;;;7.50;3.00;;;7.40;1.00;;;;;;5042318;28;20205;-76
2024/01/23 08:52:46;;;;;;;10.70;2.80;;;7.40;1.00;;;;;;5046224;28;20416;-82
2024/01/23 08:55:12;;;;;;;13.30;3.13;;;7.50;1.00;;;;;;5038506;28;20649;-78
2024/01/23 08:57:39;;;;;;;11.00;3.60;;;7.50;1.00;;;;;;5038426;28;20185;-79
2024/01/23 09:00:05;;;;;;;6.83;2.80;;;7.70;1.00;;;;;;5041451;28;20577;-78
2024/01/23 09:02:31;;;;;;;10.57;3.83;;;7.70;1.00;;;;;;5035942;28;20645;-79
2024/01/23 09:04:56;;;;;;;8.63;2.90;;;7.90;1.00;;;;;;5045924;28;20482;-77
2024/01/23 09:07:24;;;;;;;16.07;3.37;;;7.90;1.00;;;;;;5033802;28;20671;-75
2024/01/23 09:09:50;;;;;;;12.10;3.40;;;8.20;1.00;;;;;;5049177;28;20201;-76
2024/01/23 09:12:16;;;;;;;13.87;3.20;;;8.20;1.00;;;;;;5044353;28;20510;-79
2024/01/23 09:14:43;;;;;;;9.80;2.40;;;8.30;1.00;;;;;;5035450;28;20263;-75
2024/01/23 09:17:08;;;;;;;11.40;2.73;;;8.40;1.00;;;;;;5047753;28;20418;-77
2024/01/23 09:19:34;;;;;;;12.63;2.93;;;8.30;1.00;;;;;;5036877;28;20440;-78
2024/01/23 09:21:59;;;;;;;9.20;2.10;;;8.30;1.00;;;;;;5043998;28;20225;-79
2024/01/23 09:24:25;;;;;;;9.03;2.20;;;8.40;1.00;;;;;;5037873;28;20197;-76
2024/01/23 09:26:51;;;;;;;5.70;2.77;;;8.60;1.00;;;;;;5048310;28;20208;-76
2024/01/23 09:29:17;;;;;;;10.97;2.03;;;9.30;1.00;;;;;;5044988;28;20428;-76
2024/01/23 09:31:46;;;;;;;8.80;1.90;;;9.30;1.00;;;;;;5041014;28;20185;-75
2024/01/23 09:34:15;;;;;;;7.03;2.03;;;10.20;1.00;;;;;;5044082;28;20663;-80
2024/01/23 09:36:41;;;;;;;8.03;2.53;;;11.40;1.00;;;;;;5049477;28;20489;-76
2024/01/23 09:39:07;;;;;;;9.23;2.43;;;12.70;1.00;;;;;;5046522;28;20416;-77
2024/01/23 09:41:36;;;;;;;12.60;2.33;;;14.30;1.00;;;;;;5040386;28;20260;-77
2024/01/23 09:44:03;;;;;;;13.83;2.40;;;14.90;1.00;;;;;;5045164;28;20440;-76
2024/01/23 09:46:30;;;;;;;4.40;2.10;;;14.80;1.00;;;;;;5049754;28;20462;-76
2024/01/23 09:48:55;;;;;;;8.10;2.13;;;14.80;1.00;;;;;;5045819;28;20480;-75
2024/01/23 09:51:23;;;;;;;6.57;2.10;;;14.50;1.00;;;;;;5043860;28;20444;-77
2024/01/23 09:53:48;;;;;;;4.97;2.20;;;15.00;1.00;;;;;;5042091;28;20184;-76
2024/01/23 09:56:14;;;;;;;7.80;2.63;;;15.60;1.00;;;;;;5054906;28;20423;-76
2024/01/23 09:58:40;;;;;;;7.43;2.23;;;15.80;1.00;;;;;;5038678;28;20667;-76
2024/01/23 10:01:06;;;;;;;5.70;2.80;;;16.90;1.00;;;;;;5040964;28;20440;-76
2024/01/23 10:03:35;;;;;;;11.07;2.87;;;16.70;1.00;;;;;;5050649;28;20192;-76
2024/01/23 10:06:01;;;;;;;6.40;2.73;;;18.00;1.00;;;;;;5045005;28;20285;-78
2024/01/23 10:08:27;;;;;;;10.47;3.10;;;18.30;1.00;;;;;;5043194;28;20904;-76
2024/01/23 10:10:59;;;;;;;9.57;2.60;;;18.40;1.00;;;;;;5045454;28;20239;-77
2024/01/23 10:13:26;;;;;;;12.53;2.97;;;19.00;1.00;;;;;;5045024;28;20178;-78
2024/01/23 10:15:54;;;;;;;10.13;3.00;;;19.70;1.00;;;;;;5038304;28;20875;-76
2024/01/23 10:18:21;;;;;;;8.00;2.97;;;19.80;1.00;;;;;;5040683;28;20423;-77
2024/01/23 10:20:47;;;;;;;8.60;3.00;;;19.90;1.00;;;;;;5045392;28;20489;-76
2024/01/23 10:23:13;;;;;;;10.77;2.57;;;20.20;1.00;;;;;;5035210;28;20413;-79
2024/01/23 10:25:39;;;;;;;11.00;3.70;;;21.30;1.00;;;;;;5043430;28;20223;-77
2024/01/23 10:28:09;;;;;;;9.27;3.03;;;21.40;1.00;;;;;;5047314;28;20416;-77
2024/01/23 10:30:36;;;;;;;11.00;3.23;;;21.50;1.00;;;;;;5040627;28;20444;-77
2024/01/23 10:33:04;;;;;;;8.93;2.93;;;21.60;1.00;;;;;;5043411;28;21054;-76
2024/01/23 10:35:35;;;;;;;9.90;3.00;;;21.30;1.00;;;;;;5049827;28;20490;-79
2024/01/23 10:38:05;;;;;;;9.47;2.90;;;19.60;1.00;;;;;;5032501;28;20482;-78
2024/01/23 10:40:31;;;;;;;11.30;3.07;;;19.40;1.00;;;;;;5035090;28;20440;-78
2024/01/23 10:42:57;;;;;;;8.40;3.00;;;19.50;1.00;;;;;;5049011;28;20518;-77
2024/01/23 10:45:23;;;;;;;9.73;2.70;;;20.10;1.00;;;;;;5044857;28;20874;-77
2024/01/23 10:47:51;;;;;;;11.73;3.43;;;20.40;1.00;;;;;;5051003;28;20190;-77
2024/01/23 10:50:20;;;;;;;7.70;2.63;;;20.20;1.00;;;;;;5053551;28;20493;-79
2024/01/23 10:52:48;;;;;;;9.47;2.70;;;19.70;1.00;;;;;;5040165;28;20431;-80
2024/01/23 10:55:14;;;;;;;14.23;3.10;;;19.50;1.00;;;;;;5044241;28;20502;-82
2024/01/23 10:57:46;;;;;;;10.97;2.80;;;20.10;1.00;;;;;;5049405;28;20838;-77
2024/01/23 11:00:17;;;;;;;10.80;2.80;;;20.30;1.00;;;;;;5041512;28;20204;-82
2024/01/23 11:02:50;;;;;;;7.60;2.30;;;20.50;1.00;;;;;;5037527;28;20412;-80
2024/01/23 11:05:20;;;;;;;7.93;2.13;;;20.00;1.00;;;;;;5040093;28;20965;-78
2024/01/23 11:07:53;;;;;;;12.43;2.80;;;19.80;1.00;;;;;;5047779;28;20415;-77
2024/01/23 11:10:46;;;;;;;10.40;2.73;;;18.50;1.00;;;;;;5047464;28;20445;-77
2024/01/23 11:13:30;;;;;;;8.40;2.73;;;17.90;1.00;;;;;;5041404;28;20401;-77
2024/01/23 11:15:56;;;;;;;10.33;2.60;;;17.70;1.00;;;;;;5036171;28;20506;-77
2024/01/23 11:18:28;;;;;;;8.73;2.17;;;17.50;1.00;;;;;;5044089;28;22317;-76
2024/01/23 11:21:23;;;;;;;11.47;2.80;;;15.70;1.00;;;;;;5032620;28;20255;-76
2024/01/23 11:23:59;;;;;;;8.33;2.93;;;15.40;1.00;;;;;;5040170;28;20431;-77
2024/01/23 11:26:26;;;;;;;15.37;3.60;;;17.60;1.00;;;;;;5034699;28;20525;-82
2024/01/23 11:29:00;;;;;;;7.60;2.47;;;19.80;1.00;;;;;;5041237;28;20429;-77
2024/01/23 11:31:28;;;;;;;12.40;2.90;;;20.40;1.00;;;;;;5047114;28;20439;-79
2024/01/23 11:34:25;;;;;;;15.33;3.00;;;21.50;1.00;;;;;;5045183;28;20522;-79
2024/01/23 11:36:51;;;;;;;9.30;2.57;;;21.70;1.00;;;;;;5042007;28;20420;-78
2024/01/23 11:39:23;;;;;;;6.73;2.37;;;20.10;1.00;;;;;;5047925;28;20428;-77
2024/01/23 11:41:50;;;;;;;8.20;2.50;;;20.00;1.00;;;;;;5051067;28;20177;-77
2024/01/23 11:44:16;;;;;;;8.07;2.53;;;18.10;1.00;;;;;;5041520;28;20439;-77
2024/01/23 11:46:43;;;;;;;6.80;2.37;;;;;;;;;;5038721;28;20896;-76
2024/01/23 11:49:10;;;;;;;6.70;2.63;;;15.10;1.00;;;;;;5038092;28;20419;-78
2024/01/23 11:51:37;;;;;;;11.50;2.60;;;15.10;1.00;;;;;;5043411;28;20413;-80
2024/01/23 11:54:09;;;;;;;8.37;2.27;;;16.20;1.00;;;;;;5035246;28;20412;-79
2024/01/23 11:56:38;;;;;;;6.30;2.37;;;16.40;1.00;;;;;;5052769;28;20437;-77
2024/01/23 11:59:04;;;;;;;7.90;2.30;;;16.10;1.00;;;;;;5035487;28;20439;-81
2024/01/23 12:01:30;;;;;;;7.87;2.13;;;15.90;1.00;;;;;;5031962;28;20444;-76
2024/01/23 12:03:56;;;;;;;8.50;2.97;;;15.70;1.00;;;;;;5037971;28;20276;-78
2024/01/23 12:06:23;;;;;;;6.40;2.50;;;16.10;1.00;;;;;;5046804;28;20965;-76
2024/01/23 12:08:49;;;;;;;7.80;2.33;;;16.00;1.00;;;;;;5037016;28;20303;-83
2024/01/23 12:11:15;;;;;;;6.00;2.10;;;16.10;1.00;;;;;;5038994;28;20510;-76
2024/01/23 12:13:45;;;;;;;9.87;2.57;;;15.90;1.00;;;;;;5041268;28;20659;-76
2024/01/23 12:16:11;;;;;;;4.53;2.17;;;;;;;;;;5050811;28;20428;-75
2024/01/23 12:18:36;;;;;;;7.60;2.87;;;17.80;1.00;;;;;;5043036;28;20424;-77
2024/01/23 12:21:04;;;;;;;9.50;2.63;;;18.50;1.00;;;;;;5036088;28;20651;-77
2024/01/23 12:23:30;;;;;;;7.33;2.40;;;17.90;1.00;;;;;;5043224;28;20276;-79
2024/01/23 12:25:56;;;;;;;5.43;2.20;;;16.90;1.00;;;;;;5048343;28;20490;-78
2024/01/23 12:28:23;;;;;;;8.00;2.00;;;15.30;1.00;;;;;;5046564;28;20448;-77
2024/01/23 12:30:48;;;;;;;6.50;2.47;;;14.10;1.00;;;;;;5051829;28;20860;-77
2024/01/23 12:33:15;;;;;;;9.60;2.90;;;13.70;1.00;;;;;;5052160;28;20419;-78
2024/01/23 12:35:42;;;;;;;11.67;3.63;;;13.40;1.00;;;;;;5042203;28;20178;-76
2024/01/23 12:38:07;;;;;;;7.90;2.00;;;14.20;1.00;;;;;;5044163;28;20431;-77
2024/01/23 12:40:33;;;;;;;8.23;2.37;;;14.90;1.00;;;;;;5041729;28;20440;-77
2024/01/23 12:42:58;;;;;;;13.83;3.00;;;15.10;1.00;;;;;;5041004;28;20270;-77
2024/01/23 12:45:25;;;;;;;8.60;2.60;;;15.10;1.00;;;;;;5048849;28;20224;-76
2024/01/23 12:47:51;;;;;;;8.40;2.40;;;14.80;1.00;;;;;;5038973;28;20177;-78
2024/01/23 12:50:20;;;;;;;8.97;2.70;;;13.60;1.00;;;;;;5053043;28;20585;-79
2024/01/23 12:52:47;;;;;;;13.57;2.70;;;13.40;1.00;;;;;;5045245;28;20424;-77
2024/01/23 12:55:14;;;;;;;7.37;2.20;;;12.80;1.00;;;;;;5041209;28;20717;-76
2024/01/23 12:57:40;;;;;;;9.97;2.40;;;12.70;1.00;;;;;;5049665;28;20411;-77
2024/01/23 13:00:06;;;;;;;9.97;1.97;;;12.00;1.00;;;;;;5040810;28;20830;-76